Time;durP1;ratioP1;P1;durP2;ratioP2;P2;SDS_P1;SDS_P2;PMS_P1;PMS_P2;Temp;Humidity;BMP_temperature;BMP_pressure;BME280_temperature;BME280_humidity;BME280_pressure;Samples;Min_cycle;Max_cycle;Signal;HPM_P1;HPM_P2
2022/01/28 00:00:17;;;;;;;73.35;39.00;;;;;;;;;;5088886;28;20082;-73
2022/01/28 00:03:01;;;;;;;74.05;39.90;;;;;;;;;;5088442;28;20032;-73
2022/01/28 00:05:27;;;;;;;71.75;37.08;;;;;;;;;;5088485;28;20026;-73
2022/01/28 00:07:55;;;;;;;74.60;39.30;;;;;;;;;;5087308;28;20039;-73
2022/01/28 00:10:22;;;;;;;68.03;40.42;;;;;;;;;;5088745;28;20032;-73
2022/01/28 00:15:31;;;;;;;69.47;38.92;;;;;;;;;;5088991;28;20162;-73
2022/01/28 00:36:32;;;;;;;66.43;34.47;;;;;;;;;;5088582;28;20035;-73
2022/01/28 00:37:25;;;;;;;73.63;36.45;;;;;;;;;;5083890;28;20047;-73
2022/01/28 00:39:51;;;;;;;59.05;33.58;;;;;;;;;;5083883;28;20028;-73
2022/01/28 00:42:18;;;;;;;56.75;31.67;;;;;;;;;;5088118;28;20024;-73
2022/01/28 00:44:44;;;;;;;70.43;34.83;;;;;;;;;;5082937;28;20496;-73
2022/01/28 00:47:10;;;;;;;65.88;36.92;;;;;;;;;;5085918;28;20032;-72
2022/01/28 00:49:36;;;;;;;71.47;36.25;;;;;;;;;;5088232;28;20378;-73
2022/01/28 00:52:02;;;;;;;62.25;34.20;;;;;;;;;;5088554;28;20455;-73
2022/01/28 00:54:28;;;;;;;63.58;35.30;;;;;;;;;;5087553;28;20036;-73
2022/01/28 00:56:54;;;;;;;61.70;35.45;;;;;;;;;;5103725;28;20043;-73
2022/01/28 00:59:20;;;;;;;65.82;35.03;;;;;;;;;;5087322;28;20052;-73
2022/01/28 01:01:46;;;;;;;58.70;29.83;;;;;;;;;;5088446;28;20039;-73
2022/01/28 01:04:13;;;;;;;60.40;33.80;;;;;;;;;;5088830;28;20103;-73
2022/01/28 01:06:39;;;;;;;65.68;35.97;;;;;;;;;;5088188;28;20020;-72
2022/01/28 01:09:05;;;;;;;63.42;32.33;;;;;;;;;;5091214;28;20039;-73
2022/01/28 01:11:31;;;;;;;63.00;34.50;;;;;;;;;;5091898;28;20135;-73
2022/01/28 01:13:59;;;;;;;64.15;34.47;;;;;;;;;;5091552;28;20615;-72
2022/01/28 01:16:31;;;;;;;63.33;33.10;;;;;;;;;;5089145;28;20055;-73
2022/01/28 01:19:17;;;;;;;;;;;;;;;;;;5079291;28;20032;-72
2022/01/28 01:21:43;;;;;;;77.75;39.08;;;;;;;;;;5071721;28;20378;-73
2022/01/28 01:24:19;;;;;;;80.28;41.22;;;;;;;;;;5079733;28;20036;-73
2022/01/28 01:26:45;;;;;;;73.43;36.63;;;;;;;;;;5090004;28;20846;-73
2022/01/28 01:29:13;;;;;;;82.63;42.83;;;;;;;;;;5091739;28;20040;-73
2022/01/28 01:31:42;;;;;;;78.72;39.45;;;;;;;;;;5072019;28;20055;-74
2022/01/28 01:36:34;;;;;;;74.50;38.38;;;;;;;;;;5088583;28;20067;-73
2022/01/28 01:39:00;;;;;;;68.95;34.67;;;;;;;;;;5091216;28;20087;-73
2022/01/28 01:41:34;;;;;;;67.40;35.53;;;;;;;;;;5090165;28;20051;-73
2022/01/28 01:44:08;;;;;;;64.80;34.25;;;;;;;;;;5071340;28;20479;-73
2022/01/28 01:52:35;;;;;;;92.38;46.72;;;;;;;;;;5006770;28;20061;-73
2022/01/28 01:55:01;;;;;;;75.38;40.30;;;;;;;;;;5064471;28;20082;-73
2022/01/28 01:57:27;;;;;;;68.28;39.13;;;;;;;;;;5090622;28;20119;-73
2022/01/28 01:59:53;;;;;;;75.28;38.22;;;;;;;;;;5078668;28;20052;-72
2022/01/28 02:02:19;;;;;;;70.50;37.38;;;;;;;;;;5090117;28;20028;-73
2022/01/28 02:04:45;;;;;;;71.50;35.65;;;;;;;;;;5091043;28;20569;-73
2022/01/28 02:07:15;;;;;;;64.22;37.83;;;;;;;;;;5084271;28;20055;-73
2022/01/28 02:09:41;;;;;;;58.55;33.53;;;;;;;;;;5074375;28;20036;-73
2022/01/28 02:12:07;;;;;;;68.13;35.28;;;;;;;;;;5090660;28;20032;-73
2022/01/28 02:14:33;;;;;;;67.80;36.38;;;;;;;;;;5091776;28;20050;-72
2022/01/28 02:17:00;;;;;;;64.00;35.83;;;;;;;;;;5089204;28;20039;-73
2022/01/28 02:19:27;;;;;;;66.47;35.42;;;;;;;;;;5082739;28;20446;-73
2022/01/28 02:21:53;;;;;;;58.63;30.75;;;;;;;;;;5089849;28;20429;-72
2022/01/28 02:24:27;;;;;;;72.95;38.97;;;;;;;;;;5090650;28;20073;-73
2022/01/28 02:26:53;;;;;;;65.07;33.38;;;;;;;;;;5083323;28;20028;-73
2022/01/28 02:29:28;;;;;;;67.18;34.53;;;;;;;;;;5089458;28;20046;-72
2022/01/28 02:31:54;;;;;;;68.03;37.38;;;;;;;;;;5090349;28;20036;-73
2022/01/28 02:34:20;;;;;;;72.65;38.70;;;;;;;;;;5089877;28;20508;-72
2022/01/28 02:36:47;;;;;;;66.68;36.70;;;;;;;;;;5090370;28;20024;-73
2022/01/28 02:39:13;;;;;;;65.28;34.78;;;;;;;;;;5089135;28;20827;-73
2022/01/28 02:41:43;;;;;;;65.07;35.42;;;;;;;;;;5074274;28;20371;-73
2022/01/28 02:46:39;;;;;;;64.40;33.10;;;;;;;;;;5070710;28;20078;-73
2022/01/28 02:49:09;;;;;;;61.08;33.42;;;;;;;;;;5090475;28;20024;-73
2022/01/28 02:51:35;;;;;;;59.40;32.50;;;;;;;;;;5081613;28;20073;-73
2022/01/28 02:54:12;;;;;;;64.95;36.97;;;;;;;;;;5090157;28;20854;-73
2022/01/28 02:56:45;;;;;;;63.63;33.42;;;;;;;;;;5089629;28;20108;-73
2022/01/28 02:59:11;;;;;;;62.90;34.25;;;;;;;;;;5089463;28;20074;-73
2022/01/28 03:01:37;;;;;;;62.40;31.42;;;;;;;;;;5100638;28;20032;-73
2022/01/28 03:04:05;;;;;;;58.47;32.08;;;;;;;;;;5090000;28;20775;-72
2022/01/28 03:06:31;;;;;;;63.40;33.15;;;;;;;;;;5078878;28;20028;-73
2022/01/28 03:09:01;;;;;;;60.13;33.30;;;;;;;;;;5087894;28;20047;-73
2022/01/28 03:16:51;;;;;;;54.20;30.77;;;;;;;;;;5088671;28;20093;-73
2022/01/28 03:19:20;;;;;;;59.28;32.38;;;;;;;;;;5088184;28;20123;-73
2022/01/28 03:21:54;;;;;;;64.68;35.65;;;;;;;;;;5089181;28;20405;-73
2022/01/28 03:24:21;;;;;;;65.28;35.35;;;;;;;;;;5088615;28;20032;-72
2022/01/28 03:26:53;;;;;;;76.35;41.42;;;;;;;;;;5088517;28;20394;-73
2022/01/28 03:29:19;;;;;;;73.30;39.60;;;;;;;;;;5084564;28;20451;-73
2022/01/28 03:31:45;;;;;;;71.47;36.88;;;;;;;;;;5068937;28;20020;-72
2022/01/28 03:34:11;;;;;;;80.00;38.38;;;;;;;;;;5077460;28;20051;-72
2022/01/28 03:36:38;;;;;;;73.10;36.67;;;;;;;;;;5089428;28;20027;-73
2022/01/28 03:39:04;;;;;;;69.85;35.80;;;;;;;;;;5088634;28;20039;-72
2022/01/28 03:41:30;;;;;;;65.25;36.17;;;;;;;;;;5074140;28;20021;-73
2022/01/28 03:44:00;;;;;;;68.03;35.67;;;;;;;;;;5085303;28;20036;-73
2022/01/28 03:46:27;;;;;;;63.35;32.03;;;;;;;;;;5068212;28;20050;-73
2022/01/28 03:48:54;;;;;;;66.65;32.28;;;;;;;;;;5074465;28;20048;-72
2022/01/28 03:51:20;;;;;;;64.80;33.92;;;;;;;;;;5088237;28;20043;-73
2022/01/28 03:53:46;;;;;;;75.40;36.25;;;;;;;;;;5088737;28;20040;-73
2022/01/28 03:56:12;;;;;;;62.33;34.70;;;;;;;;;;5086514;28;20032;-73
2022/01/28 03:58:38;;;;;;;65.43;33.53;;;;;;;;;;5087344;28;20062;-73
2022/01/28 04:01:10;;;;;;;65.97;37.08;;;;;;;;;;5088278;28;20035;-73
2022/01/28 04:13:47;;;;;;;61.72;33.97;;;;;;;;;;5085046;28;20044;-73
2022/01/28 04:16:30;;;;;;;64.25;33.08;;;;;;;;;;5088151;28;20032;-73
2022/01/28 04:19:03;;;;;;;61.85;31.73;;;;;;;;;;5088946;28;20051;-73
2022/01/28 04:21:30;;;;;;;58.50;31.08;;;;;;;;;;5087354;28;20051;-73
2022/01/28 04:23:56;;;;;;;56.25;30.45;;;;;;;;;;5086844;28;20468;-73
2022/01/28 04:26:22;;;;;;;63.75;33.90;;;;;;;;;;5088663;28;20027;-73
2022/01/28 04:28:48;;;;;;;60.08;32.47;;;;;;;;;;5087901;28;20040;-72
2022/01/28 04:31:14;;;;;;;60.42;33.33;;;;;;;;;;5088812;28;20363;-73
2022/01/28 04:33:40;;;;;;;64.07;34.97;;;;;;;;;;5088215;28;20097;-72
2022/01/28 04:36:09;;;;;;;57.92;31.35;;;;;;;;;;5088045;28;20032;-72
2022/01/28 04:38:48;;;;;;;60.03;32.42;;;;;;;;;;5089003;28;20039;-72
2022/01/28 04:43:46;;;;;;;65.82;35.53;;;;;;;;;;5092207;28;20055;-73
2022/01/28 04:48:50;;;;;;;65.00;34.17;;;;;;;;;;5092252;28;20490;-73
2022/01/28 04:56:40;;;;;;;73.50;36.15;;;;;;;;;;5091078;28;20035;-72
2022/01/28 04:59:28;;;;;;;63.83;33.17;;;;;;;;;;5090059;28;20064;-72
2022/01/28 05:02:16;;;;;;;74.88;36.30;;;;;;;;;;5080930;28;20020;-73
2022/01/28 05:15:32;;;;;;;70.00;37.03;;;;;;;;;;5092197;28;20047;-73
2022/01/28 05:26:34;;;;;;;89.82;48.03;;;;;;;;;;5089891;28;20117;-73
2022/01/28 05:29:00;;;;;;;82.15;41.83;;;;;;;;;;5087966;28;20034;-73
2022/01/28 05:31:26;;;;;;;86.10;42.97;;;;;;;;;;5090015;28;20064;-72
2022/01/28 05:33:53;;;;;;;88.03;38.75;;;;;;;;;;5091669;28;20042;-73
2022/01/28 05:36:19;;;;;;;76.57;34.85;;;;;;;;;;5091168;28;20034;-72
2022/01/28 05:38:45;;;;;;;74.22;33.22;;;;;;;;;;5091115;28;20132;-72
2022/01/28 05:41:11;;;;;;;73.18;34.78;;;;;;;;;;5091028;28;20032;-72
2022/01/28 05:43:37;;;;;;;76.00;33.60;;;;;;;;;;5090575;28;20032;-73
2022/01/28 05:46:03;;;;;;;71.85;35.53;;;;;;;;;;5091168;28;20043;-73
2022/01/28 05:48:30;;;;;;;72.55;36.20;;;;;;;;;;5090506;28;20032;-73
2022/01/28 05:50:56;;;;;;;71.90;33.78;;;;;;;;;;5089825;28;20075;-72
2022/01/28 05:53:22;;;;;;;76.00;33.15;;;;;;;;;;5086712;28;20078;-72
2022/01/28 05:55:48;;;;;;;83.63;38.42;;;;;;;;;;5090360;28;20093;-73
2022/01/28 05:58:14;;;;;;;78.63;38.50;;;;;;;;;;5089785;28;20474;-72
2022/01/28 06:00:40;;;;;;;88.53;42.85;;;;;;;;;;5085943;28;20044;-72
2022/01/28 06:03:06;;;;;;;74.82;37.72;;;;;;;;;;5070206;28;20036;-73
2022/01/28 06:05:32;;;;;;;83.70;36.75;;;;;;;;;;5087965;28;20034;-73
2022/01/28 06:07:58;;;;;;;98.30;43.22;;;;;;;;;;5089556;28;20344;-73
2022/01/28 06:10:24;;;;;;;125.80;48.78;;;;;;;;;;5088311;28;20036;-73
2022/01/28 06:12:50;;;;;;;103.88;42.33;;;;;;;;;;5083133;28;20048;-72
2022/01/28 06:15:16;;;;;;;100.55;43.20;;;;;;;;;;5087087;28;20390;-72
2022/01/28 06:17:42;;;;;;;86.88;39.63;;;;;;;;;;5085383;28;20122;-73
2022/01/28 06:20:10;;;;;;;125.35;50.17;;;;;;;;;;5077777;28;20157;-73
2022/01/28 06:22:43;;;;;;;119.40;45.63;;;;;;;;;;5076560;28;20103;-72
2022/01/28 06:25:10;;;;;;;89.47;37.38;;;;;;;;;;5080752;28;20024;-73
2022/01/28 06:27:36;;;;;;;91.72;40.75;;;;;;;;;;5088871;28;20035;-72
2022/01/28 06:30:04;;;;;;;98.65;40.35;;;;;;;;;;5083316;28;20036;-72
2022/01/28 06:32:30;;;;;;;112.63;43.88;;;;;;;;;;5086328;28;20028;-73
2022/01/28 06:34:56;;;;;;;100.20;41.33;;;;;;;;;;5088786;28;20077;-72
2022/01/28 06:37:22;;;;;;;114.50;50.30;;;;;;;;;;5080157;28;20035;-72
2022/01/28 06:39:48;;;;;;;112.40;47.80;;;;;;;;;;5082803;28;20671;-73
2022/01/28 06:42:14;;;;;;;108.93;47.53;;;;;;;;;;5085117;28;20039;-73
2022/01/28 06:44:40;;;;;;;112.50;48.63;;;;;;;;;;5084715;28;20032;-73
2022/01/28 06:47:10;;;;;;;105.70;46.65;;;;;;;;;;5084897;28;20051;-73
2022/01/28 06:49:38;;;;;;;123.97;52.88;;;;;;;;;;5083186;28;20024;-73
2022/01/28 06:52:04;;;;;;;116.78;53.05;;;;;;;;;;5083815;28;20035;-73
2022/01/28 06:54:30;;;;;;;140.60;55.88;;;;;;;;;;5081101;28;20031;-73
2022/01/28 06:56:57;;;;;;;138.02;64.68;;;;;;;;;;5085662;28;20123;-73
2022/01/28 06:59:23;;;;;;;124.28;53.60;;;;;;;;;;5088287;28;20158;-73
2022/01/28 07:01:49;;;;;;;113.90;47.05;;;;;;;;;;5089276;28;20028;-73
2022/01/28 07:04:15;;;;;;;106.75;46.80;;;;;;;;;;5076653;28;20074;-73
2022/01/28 07:06:41;;;;;;;108.57;44.95;;;;;;;;;;5083136;28;20077;-73
2022/01/28 07:09:08;;;;;;;122.07;52.55;;;;;;;;;;5085738;28;20039;-73
2022/01/28 07:11:34;;;;;;;136.90;59.30;;;;;;;;;;5089462;28;20115;-73
2022/01/28 07:14:00;;;;;;;120.78;56.42;;;;;;;;;;5086853;28;20107;-73
2022/01/28 07:16:27;;;;;;;109.50;47.85;;;;;;;;;;5074483;28;20028;-73
2022/01/28 07:18:53;;;;;;;89.00;39.53;;;;;;;;;;5086615;28;22034;-73
2022/01/28 07:21:19;;;;;;;83.57;36.08;;;;;;;;;;5079404;28;20108;-72
2022/01/28 07:23:46;;;;;;;85.63;40.72;;;;;;;;;;5086819;28;20118;-73
2022/01/28 07:26:12;;;;;;;106.90;45.92;;;;;;;;;;5073334;28;20457;-72
2022/01/28 07:28:39;;;;;;;101.78;45.63;;;;;;;;;;5083203;28;20032;-72
2022/01/28 07:31:08;;;;;;;99.28;47.83;;;;;;;;;;5088067;28;20042;-72
2022/01/28 07:33:34;;;;;;;110.25;49.70;;;;;;;;;;5079387;28;20393;-73
2022/01/28 07:36:00;;;;;;;123.97;55.40;;;;;;;;;;5085104;28;20032;-73
2022/01/28 07:38:26;;;;;;;116.07;50.67;;;;;;;;;;5078905;28;20039;-73
2022/01/28 07:40:52;;;;;;;97.57;41.92;;;;;;;;;;5087919;28;20069;-73
2022/01/28 07:43:20;;;;;;;99.18;40.90;;;;;;;;;;5084537;28;20117;-73
2022/01/28 07:45:46;;;;;;;99.65;42.83;;;;;;;;;;5085680;28;20754;-73
2022/01/28 07:48:12;;;;;;;96.90;42.70;;;;;;;;;;5088870;28;20439;-73
2022/01/28 07:50:38;;;;;;;114.28;46.80;;;;;;;;;;5083345;28;20044;-73
2022/01/28 07:53:05;;;;;;;105.18;46.78;;;;;;;;;;5088983;28;20044;-73
2022/01/28 07:55:31;;;;;;;98.97;49.50;;;;;;;;;;5081988;28;20034;-74
2022/01/28 07:57:57;;;;;;;100.60;43.83;;;;;;;;;;5082396;28;20036;-73
2022/01/28 08:00:26;;;;;;;103.25;44.08;;;;;;;;;;5081512;28;20131;-73
2022/01/28 08:02:52;;;;;;;123.70;56.45;;;;;;;;;;5071341;28;20488;-72
2022/01/28 08:05:18;;;;;;;131.95;60.80;;;;;;;;;;5081240;28;20103;-72
2022/01/28 08:07:45;;;;;;;110.05;51.10;;;;;;;;;;5087905;28;20066;-73
2022/01/28 08:10:11;;;;;;;108.85;49.80;;;;;;;;;;5081824;28;20112;-73
2022/01/28 08:12:44;;;;;;;100.82;46.83;;;;;;;;;;5085030;28;20422;-74
2022/01/28 08:15:11;;;;;;;93.50;46.13;;;;;;;;;;5079595;28;20044;-73
2022/01/28 08:17:37;;;;;;;106.82;49.85;;;;;;;;;;5091279;28;20439;-74
2022/01/28 08:20:03;;;;;;;92.88;44.58;;;;;;;;;;5084368;28;20134;-74
2022/01/28 08:22:30;;;;;;;89.40;42.25;;;;;;;;;;5086935;28;20020;-73
2022/01/28 08:24:56;;;;;;;100.93;49.17;;;;;;;;;;5092440;28;20024;-73
2022/01/28 08:27:22;;;;;;;116.93;52.50;;;;;;;;;;5073468;28;20036;-73
2022/01/28 08:29:48;;;;;;;123.43;62.15;;;;;;;;;;5082879;28;20032;-73
2022/01/28 08:32:14;;;;;;;133.82;65.50;;;;;;;;;;5086636;28;20486;-73
2022/01/28 08:34:40;;;;;;;109.03;53.90;;;;;;;;;;5088888;28;20040;-73
2022/01/28 08:37:06;;;;;;;114.13;54.35;;;;;;;;;;5089594;28;20028;-73
2022/01/28 08:39:34;;;;;;;126.93;53.88;;;;;;;;;;5080833;28;20040;-73
2022/01/28 08:42:00;;;;;;;109.97;48.85;;;;;;;;;;5087426;28;20020;-73
2022/01/28 08:44:27;;;;;;;107.75;50.00;;;;;;;;;;5086750;28;20035;-73
2022/01/28 08:46:53;;;;;;;115.68;55.55;;;;;;;;;;5073755;28;20624;-73
2022/01/28 08:49:19;;;;;;;124.18;61.35;;;;;;;;;;5087499;28;20085;-73
2022/01/28 08:51:45;;;;;;;135.13;60.53;;;;;;;;;;5092162;28;20031;-73
2022/01/28 08:54:11;;;;;;;119.45;57.33;;;;;;;;;;5087283;28;20067;-73
2022/01/28 08:56:37;;;;;;;122.03;59.10;;;;;;;;;;5080292;28;20059;-73
2022/01/28 08:59:03;;;;;;;110.05;57.22;;;;;;;;;;5088328;28;20055;-73
2022/01/28 09:01:30;;;;;;;105.82;56.55;;;;;;;;;;5088694;28;20031;-73
2022/01/28 09:03:56;;;;;;;102.60;54.50;;;;;;;;;;5089590;28;20122;-73
2022/01/28 09:06:22;;;;;;;111.70;55.72;;;;;;;;;;5089820;28;20149;-73
2022/01/28 09:08:49;;;;;;;104.35;53.88;;;;;;;;;;5092310;28;20032;-73
2022/01/28 09:13:47;;;;;;;93.43;52.72;;;;;;;;;;5077279;28;20047;-73
2022/01/28 09:16:13;;;;;;;93.82;46.03;;;;;;;;;;5089976;28;20605;-73
2022/01/28 09:18:39;;;;;;;100.80;51.05;;;;;;;;;;5086625;28;20033;-73
2022/01/28 09:21:05;;;;;;;98.18;52.15;;;;;;;;;;5074541;28;20115;-73
2022/01/28 09:23:32;;;;;;;107.55;54.15;;;;;;;;;;5088361;28;20063;-73
2022/01/28 09:25:58;;;;;;;93.85;51.00;;;;;;;;;;5090751;28;20035;-73
2022/01/28 09:28:24;;;;;;;98.63;50.08;;;;;;;;;;5091284;28;20029;-73
2022/01/28 09:30:50;;;;;;;90.35;48.75;;;;;;;;;;5091476;28;20024;-73
2022/01/28 09:33:16;;;;;;;89.97;47.53;;;;;;;;;;5089108;28;20050;-73
2022/01/28 09:35:42;;;;;;;88.47;45.60;;;;;;;;;;5086101;28;20031;-73
2022/01/28 09:38:08;;;;;;;81.20;45.03;;;;;;;;;;5085566;28;20421;-73
2022/01/28 09:40:35;;;;;;;85.68;47.63;;;;;;;;;;5084273;28;20550;-73
2022/01/28 09:43:04;;;;;;;78.05;44.25;;;;;;;;;;5083964;28;20042;-73
2022/01/28 09:45:30;;;;;;;74.63;42.20;;;;;;;;;;5085386;28;20028;-73
2022/01/28 09:47:56;;;;;;;73.35;41.80;;;;;;;;;;5087775;28;20032;-73
2022/01/28 09:50:27;;;;;;;81.57;43.80;;;;;;;;;;5084453;28;20035;-73
2022/01/28 09:52:54;;;;;;;80.72;42.38;;;;;;;;;;5087102;28;20123;-73
2022/01/28 09:55:21;;;;;;;66.03;40.17;;;;;;;;;;5082854;28;20122;-73
2022/01/28 09:57:51;;;;;;;65.60;36.60;;;;;;;;;;5090014;28;20027;-72
2022/01/28 10:00:17;;;;;;;66.97;36.53;;;;;;;;;;5088471;28;20079;-73
2022/01/28 10:02:51;;;;;;;66.45;37.08;;;;;;;;;;5088620;28;20036;-73
2022/01/28 10:05:27;;;;;;;63.17;35.88;;;;;;;;;;5084153;28;20786;-72
2022/01/28 10:08:12;;;;;;;65.20;36.88;;;;;;;;;;5085851;28;20059;-73
2022/01/28 10:10:58;;;;;;;70.78;37.17;;;;;;;;;;5083020;28;20024;-73
2022/01/28 10:16:01;;;;;;;65.07;33.33;;;;;;;;;;5087707;28;20039;-72
2022/01/28 10:18:43;;;;;;;59.80;32.25;;;;;;;;;;5085328;28;20612;-73
2022/01/28 10:21:18;;;;;;;58.72;32.03;;;;;;;;;;5080638;28;20068;-73
2022/01/28 10:24:04;;;;;;;61.75;34.35;;;;;;;;;;5083570;28;20040;-73
2022/01/28 10:26:30;;;;;;;57.03;32.28;;;;;;;;;;5078847;28;20052;-73
2022/01/28 10:28:57;;;;;;;61.78;33.95;;;;;;;;;;5082400;28;20202;-73
2022/01/28 10:31:23;;;;;;;57.75;30.67;;;;;;;;;;5088866;28;20020;-73
2022/01/28 10:33:50;;;;;;;60.65;33.03;;;;;;;;;;5086662;28;20367;-71
2022/01/28 10:36:26;;;;;;;50.95;29.48;;;;;;;;;;5088956;28;20039;-71
2022/01/28 10:38:57;;;;;;;53.92;29.83;;;;;;;;;;5082936;28;20042;-71
2022/01/28 10:41:25;;;;;;;53.10;29.50;;;;;;;;;;5079685;28;20032;-71
2022/01/28 10:43:52;;;;;;;51.58;28.15;;;;;;;;;;5084912;28;20787;-71
2022/01/28 10:46:22;;;;;;;57.20;31.40;;;;;;;;;;5088796;28;20032;-71
2022/01/28 10:49:09;;;;;;;57.53;30.52;;;;;;;;;;5082869;28;20035;-71
2022/01/28 10:51:45;;;;;;;52.03;28.48;;;;;;;;;;5080381;28;20042;-71
2022/01/28 10:54:12;;;;;;;51.63;27.10;;;;;;;;;;5086870;28;20522;-71
2022/01/28 10:56:49;;;;;;;49.28;25.42;;;;;;;;;;5076011;28;20043;-71
2022/01/28 10:59:16;;;;;;;51.25;29.02;;;;;;;;;;5077151;28;20122;-71
2022/01/28 11:01:43;;;;;;;52.10;29.65;;;;;;;;;;5072442;28;20036;-71
2022/01/28 11:04:11;;;;;;;47.95;28.73;;;;;;;;;;5082836;28;20032;-71
2022/01/28 11:06:37;;;;;;;50.60;29.65;;;;;;;;;;5073551;28;20020;-71
2022/01/28 11:09:03;;;;;;;51.28;29.52;;;;;;;;;;5085159;28;20657;-71
2022/01/28 11:11:29;;;;;;;54.92;29.73;;;;;;;;;;5104639;28;20569;-71
2022/01/28 11:13:56;;;;;;;61.17;32.80;;;;;;;;;;5081205;28;20708;-71
2022/01/28 11:16:22;;;;;;;59.38;33.22;;;;;;;;;;5075855;28;20715;-71
2022/01/28 11:18:48;;;;;;;52.53;29.38;;;;;;;;;;5077024;28;20404;-71
2022/01/28 11:21:17;;;;;;;57.85;28.77;;;;;;;;;;5078791;28;20040;-71
2022/01/28 11:23:51;;;;;;;48.15;27.13;;;;;;;;;;5081300;28;20038;-71
2022/01/28 11:26:31;;;;;;;48.35;27.30;;;;;;;;;;5083633;28;20028;-71
2022/01/28 11:29:02;;;;;;;67.30;35.85;;;;;;;;;;5088119;28;20028;-71
2022/01/28 11:31:48;;;;;;;56.17;31.33;;;;;;;;;;5087306;28;20766;-71
2022/01/28 11:34:34;;;;;;;46.50;27.00;;;;;;;;;;5082961;28;20077;-71
2022/01/28 11:37:03;;;;;;;58.13;29.45;;;;;;;;;;5071444;28;20047;-71
2022/01/28 11:39:41;;;;;;;55.65;30.00;;;;;;;;;;5085526;28;20042;-71
2022/01/28 11:42:18;;;;;;;58.17;31.23;;;;;;;;;;5083879;28;20031;-71
2022/01/28 11:44:46;;;;;;;58.47;32.78;;;;;;;;;;5076605;28;20037;-71
2022/01/28 11:47:19;;;;;;;50.47;28.55;;;;;;;;;;5086798;28;20063;-71
2022/01/28 11:49:53;;;;;;;46.92;27.40;;;;;;;;;;5076611;28;20127;-71
2022/01/28 11:52:51;;;;;;;59.17;32.42;;;;;;;;;;5080607;28;20055;-71
2022/01/28 11:55:17;;;;;;;50.92;28.92;;;;;;;;;;5053282;28;20051;-71
2022/01/28 11:57:57;;;;;;;55.13;27.70;;;;;;;;;;5081281;28;20467;-72
2022/01/28 12:00:25;;;;;;;48.00;27.20;;;;;;;;;;5083875;28;20050;-71
2022/01/28 12:02:52;;;;;;;49.60;27.83;;;;;;;;;;5087476;28;20040;-71
2022/01/28 12:05:25;;;;;;;47.30;28.92;;;;;;;;;;5083213;28;20024;-71
2022/01/28 12:07:51;;;;;;;47.58;28.45;;;;;;;;;;5083622;28;20100;-71
2022/01/28 12:10:18;;;;;;;48.58;29.55;;;;;;;;;;5077885;28;20036;-71
2022/01/28 12:12:45;;;;;;;58.83;32.55;;;;;;;;;;5078146;28;20033;-71
2022/01/28 12:15:13;;;;;;;43.92;24.42;;;;;;;;;;5081461;28;20032;-71
2022/01/28 12:17:40;;;;;;;44.78;24.90;;;;;;;;;;5075373;28;20030;-71
2022/01/28 12:20:15;;;;;;;44.85;26.27;;;;;;;;;;5084713;28;20104;-71
2022/01/28 12:23:00;;;;;;;38.70;23.08;;;;;;;;;;5078133;28;20887;-71
2022/01/28 12:25:41;;;;;;;41.47;23.73;;;;;;;;;;5072945;28;20107;-71
2022/01/28 12:28:18;;;;;;;42.78;23.05;;;;;;;;;;5081631;28;20442;-71
2022/01/28 12:31:05;;;;;;;36.60;21.42;;;;;;;;;;5079730;28;20028;-71
2022/01/28 12:33:35;;;;;;;36.45;22.67;;;;;;;;;;5082654;28;20032;-71
2022/01/28 12:36:08;;;;;;;44.17;26.20;;;;;;;;;;5079951;28;20074;-71
2022/01/28 12:38:37;;;;;;;41.42;24.63;;;;;;;;;;5073979;28;20044;-71
2022/01/28 12:41:08;;;;;;;41.70;25.40;;;;;;;;;;5075243;28;20036;-71
2022/01/28 12:43:36;;;;;;;52.47;28.70;;;;;;;;;;5082940;28;20040;-71
2022/01/28 12:46:05;;;;;;;55.75;30.23;;;;;;;;;;5073375;28;20122;-71
2022/01/28 12:48:31;;;;;;;48.05;25.50;;;;;;;;;;5083637;28;20028;-71
2022/01/28 12:50:58;;;;;;;43.95;24.05;;;;;;;;;;5081627;28;20024;-71
2022/01/28 12:53:32;;;;;;;38.85;22.42;;;;;;;;;;5085019;28;20081;-71
2022/01/28 12:56:01;;;;;;;42.78;24.85;;;;;;;;;;5082428;28;20031;-71
2022/01/28 12:58:34;;;;;;;35.97;22.38;;;;;;;;;;5086662;28;20036;-71
2022/01/28 13:01:11;;;;;;;42.65;24.13;;;;;;;;;;5082795;28;20043;-71
2022/01/28 13:04:02;;;;;;;34.28;19.95;;;;;;;;;;5083257;28;20359;-71
2022/01/28 13:06:39;;;;;;;36.60;21.02;;;;;;;;;;5072808;28;20739;-71
2022/01/28 13:09:18;;;;;;;34.15;20.23;;;;;;;;;;5082257;28;20119;-71
2022/01/28 13:11:45;;;;;;;34.85;20.15;;;;;;;;;;5081181;28;20044;-71
2022/01/28 13:14:12;;;;;;;35.13;20.17;;;;;;;;;;5087344;28;20028;-71
2022/01/28 13:16:39;;;;;;;38.38;20.58;;;;;;;;;;5091517;28;20076;-73
2022/01/28 13:19:06;;;;;;;37.10;19.98;;;;;;;;;;5082397;28;20348;-72
2022/01/28 13:21:33;;;;;;;32.80;20.73;;;;;;;;;;5091559;28;20063;-72
2022/01/28 13:24:08;;;;;;;39.40;21.30;;;;;;;;;;5091002;28;20031;-72
2022/01/28 13:26:35;;;;;;;32.15;19.70;;;;;;;;;;5088586;28;20039;-72
2022/01/28 13:29:11;;;;;;;32.70;19.60;;;;;;;;;;5087210;28;20035;-72
2022/01/28 13:31:37;;;;;;;36.03;20.35;;;;;;;;;;5089084;28;20036;-73
2022/01/28 13:34:05;;;;;;;32.20;19.38;;;;;;;;;;5082425;28;20577;-73
2022/01/28 13:36:45;;;;;;;37.00;20.85;;;;;;;;;;5088506;28;20063;-73
2022/01/28 13:39:21;;;;;;;33.17;18.55;;;;;;;;;;5084752;28;20076;-72
2022/01/28 13:41:51;;;;;;;39.42;21.75;;;;;;;;;;5089929;28;20067;-72
2022/01/28 13:44:24;;;;;;;35.90;21.15;;;;;;;;;;5091108;28;20036;-72
2022/01/28 13:47:01;;;;;;;33.55;19.63;;;;;;;;;;5081057;28;20102;-72
2022/01/28 13:49:36;;;;;;;38.33;22.58;;;;;;;;;;5088299;28;20028;-72
2022/01/28 13:52:17;;;;;;;37.88;21.17;;;;;;;;;;5075703;28;20035;-73
2022/01/28 13:54:43;;;;;;;40.65;22.00;;;;;;;;;;5077508;28;20650;-72
2022/01/28 13:57:10;;;;;;;37.88;23.13;;;;;;;;;;5082541;28;20024;-73
2022/01/28 13:59:36;;;;;;;37.15;22.10;;;;;;;;;;5084776;28;20115;-72
2022/01/28 14:02:03;;;;;;;36.03;20.92;;;;;;;;;;5075583;28;20032;-72
2022/01/28 14:04:35;;;;;;;32.60;18.63;;;;;;;;;;5090965;28;20044;-73
2022/01/28 14:07:01;;;;;;;;;;;;;;;;;;5080659;28;20036;-72
2022/01/28 14:09:27;;;;;;;37.28;20.73;;;;;;;;;;5081458;28;19927;-72
2022/01/28 14:12:01;;;;;;;32.45;19.45;;;;;;;;;;5087781;28;20032;-72
2022/01/28 14:14:34;;;;;;;38.83;23.55;;;;;;;;;;5079087;28;20106;-72
2022/01/28 14:17:04;;;;;;;41.28;24.95;;;;;;;;;;5084156;28;20031;-72
2022/01/28 14:19:31;;;;;;;47.08;27.38;;;;;;;;;;5085276;28;20032;-72
2022/01/28 14:21:58;;;;;;;34.40;18.58;;;;;;;;;;5089342;28;20020;-72
2022/01/28 14:24:26;;;;;;;30.33;20.20;;;;;;;;;;5090837;28;20039;-73
2022/01/28 14:27:11;;;;;;;30.88;19.35;;;;;;;;;;5085070;28;20032;-73
2022/01/28 14:29:50;;;;;;;28.08;16.38;;;;;;;;;;5082808;28;20063;-73
2022/01/28 14:32:18;;;;;;;31.88;18.38;;;;;;;;;;5086702;28;20056;-72
2022/01/28 14:34:45;;;;;;;35.78;22.00;;;;;;;;;;5083982;28;20383;-72
2022/01/28 14:37:11;;;;;;;46.63;26.65;;;;;;;;;;5087816;28;20076;-72
2022/01/28 14:39:38;;;;;;;44.42;23.40;;;;;;;;;;5077981;28;20059;-72
2022/01/28 14:42:05;;;;;;;31.33;18.80;;;;;;;;;;5084087;28;20095;-72
2022/01/28 14:44:31;;;;;;;37.83;18.80;;;;;;;;;;5085374;28;20054;-72
2022/01/28 14:46:58;;;;;;;46.47;26.23;;;;;;;;;;5088246;28;20110;-73
2022/01/28 14:49:24;;;;;;;54.67;31.77;;;;;;;;;;5081515;28;20040;-73
2022/01/28 14:51:53;;;;;;;34.88;18.20;;;;;;;;;;5082618;28;20038;-74
2022/01/28 14:54:22;;;;;;;29.33;15.18;;;;;;;;;;5088000;28;20028;-73
2022/01/28 14:56:48;;;;;;;39.13;13.82;;;;;;;;;;5083158;28;20537;-72
2022/01/28 14:59:14;;;;;;;53.30;16.67;;;;;;;;;;5078991;28;20049;-72
2022/01/28 15:01:41;;;;;;;62.28;19.98;;;;;;;;;;5072891;28;20032;-72
2022/01/28 15:04:07;;;;;;;45.95;17.33;;;;;;;;;;5086523;28;20085;-72
2022/01/28 15:06:33;;;;;;;29.63;15.50;;;;;;;;;;5074917;28;20028;-72
2022/01/28 15:09:01;;;;;;;31.15;14.82;;;;;;;;;;5083968;28;20501;-72
2022/01/28 15:11:43;;;;;;;24.98;10.95;;;;;;;;;;5088901;28;20498;-72
2022/01/28 15:14:10;;;;;;;20.77;11.20;;;;;;;;;;5086581;28;20116;-72
2022/01/28 15:16:36;;;;;;;29.00;14.32;;;;;;;;;;5084046;28;20127;-72
2022/01/28 15:19:02;;;;;;;29.63;14.65;;;;;;;;;;5086107;28;20028;-72
2022/01/28 15:21:28;;;;;;;33.85;12.63;;;;;;;;;;5077399;28;20047;-72
2022/01/28 15:23:54;;;;;;;70.68;20.90;;;;;;;;;;5071752;28;20044;-72
2022/01/28 15:26:20;;;;;;;62.08;21.10;;;;;;;;;;5087781;28;20070;-72
2022/01/28 15:29:01;;;;;;;66.55;18.42;;;;;;;;;;5088947;28;20071;-72
2022/01/28 15:36:42;;;;;;;28.55;11.60;;;;;;;;;;5084697;28;20043;-72
2022/01/28 15:39:08;;;;;;;23.83;10.75;;;;;;;;;;5080313;28;20064;-72
2022/01/28 15:41:34;;;;;;;21.77;10.52;;;;;;;;;;5089238;28;20028;-73
2022/01/28 15:44:00;;;;;;;25.20;10.73;;;;;;;;;;5082703;28;20471;-72
2022/01/28 15:46:27;;;;;;;22.23;9.55;;;;;;;;;;5085977;28;20028;-72
2022/01/28 15:48:53;;;;;;;18.02;9.80;;;;;;;;;;5080860;28;20067;-72
2022/01/28 15:51:20;;;;;;;20.65;9.80;;;;;;;;;;5087259;28;20113;-73